sensor_id;sensor_type;location;lat;lon;timestamp;P1;durP1;ratioP1;P2;durP2;ratioP2
19842;SDS011;10082;51.038;6.992;2022-07-23T00:00:20;32.55;;;29.27;;
19842;SDS011;10082;51.038;6.992;2022-07-23T00:02:48;34.55;;;30.90;;
19842;SDS011;10082;51.038;6.992;2022-07-23T00:05:14;37.03;;;33.13;;
19842;SDS011;10082;51.038;6.992;2022-07-23T00:07:41;40.25;;;35.85;;
19842;SDS011;10082;51.038;6.992;2022-07-23T00:10:08;34.53;;;30.92;;
19842;SDS011;10082;51.038;6.992;2022-07-23T00:12:35;34.55;;;30.92;;
19842;SDS011;10082;51.038;6.992;2022-07-23T00:15:02;34.63;;;30.92;;
19842;SDS011;10082;51.038;6.992;2022-07-23T00:17:30;29.67;;;26.65;;
19842;SDS011;10082;51.038;6.992;2022-07-23T00:19:58;29.88;;;26.63;;
19842;SDS011;10082;51.038;6.992;2022-07-23T00:22:25;29.98;;;26.95;;
19842;SDS011;10082;51.038;6.992;2022-07-23T00:24:52;31.45;;;27.17;;
19842;SDS011;10082;51.038;6.992;2022-07-23T00:27:19;27.08;;;24.38;;
19842;SDS011;10082;51.038;6.992;2022-07-23T00:29:46;27.63;;;24.75;;
19842;SDS011;10082;51.038;6.992;2022-07-23T00:32:13;29.63;;;26.58;;
19842;SDS011;10082;51.038;6.992;2022-07-23T00:34:39;32.65;;;29.13;;
19842;SDS011;10082;51.038;6.992;2022-07-23T00:37:07;32.67;;;29.15;;
19842;SDS011;10082;51.038;6.992;2022-07-23T00:39:34;32.75;;;29.25;;
19842;SDS011;10082;51.038;6.992;2022-07-23T00:42:01;32.47;;;29.08;;
19842;SDS011;10082;51.038;6.992;2022-07-23T00:44:28;32.90;;;29.42;;
19842;SDS011;10082;51.038;6.992;2022-07-23T00:46:57;34.13;;;30.52;;
19842;SDS011;10082;51.038;6.992;2022-07-23T00:49:25;35.17;;;30.58;;
19842;SDS011;10082;51.038;6.992;2022-07-23T00:51:53;32.72;;;29.15;;
19842;SDS011;10082;51.038;6.992;2022-07-23T00:54:23;46.17;;;36.05;;
19842;SDS011;10082;51.038;6.992;2022-07-23T00:56:51;45.60;;;36.80;;
19842;SDS011;10082;51.038;6.992;2022-07-23T00:59:18;52.50;;;38.85;;
19842;SDS011;10082;51.038;6.992;2022-07-23T01:01:46;52.83;;;40.40;;
19842;SDS011;10082;51.038;6.992;2022-07-23T01:04:14;63.08;;;43.35;;
19842;SDS011;10082;51.038;6.992;2022-07-23T01:06:41;55.85;;;41.28;;
19842;SDS011;10082;51.038;6.992;2022-07-23T01:09:10;54.63;;;39.80;;
19842;SDS011;10082;51.038;6.992;2022-07-23T01:11:39;41.72;;;35.63;;
19842;SDS011;10082;51.038;6.992;2022-07-23T01:14:09;52.38;;;38.08;;
19842;SDS011;10082;51.038;6.992;2022-07-23T01:16:37;42.53;;;34.05;;
19842;SDS011;10082;51.038;6.992;2022-07-23T01:19:04;48.78;;;38.10;;
19842;SDS011;10082;51.038;6.992;2022-07-23T01:21:33;37.78;;;33.58;;
19842;SDS011;10082;51.038;6.992;2022-07-23T01:24:04;42.05;;;34.58;;
19842;SDS011;10082;51.038;6.992;2022-07-23T01:26:33;42.45;;;35.67;;
19842;SDS011;10082;51.038;6.992;2022-07-23T01:29:01;39.70;;;33.33;;
19842;SDS011;10082;51.038;6.992;2022-07-23T01:31:28;42.65;;;33.50;;
19842;SDS011;10082;51.038;6.992;2022-07-23T01:33:55;39.15;;;33.60;;
19842;SDS011;10082;51.038;6.992;2022-07-23T01:36:23;38.45;;;32.25;;
19842;SDS011;10082;51.038;6.992;2022-07-23T01:38:50;39.10;;;33.97;;
19842;SDS011;10082;51.038;6.992;2022-07-23T01:41:19;40.85;;;34.45;;
19842;SDS011;10082;51.038;6.992;2022-07-23T01:43:46;40.65;;;33.13;;
19842;SDS011;10082;51.038;6.992;2022-07-23T01:46:13;49.38;;;35.70;;
19842;SDS011;10082;51.038;6.992;2022-07-23T01:48:44;38.67;;;31.85;;
19842;SDS011;10082;51.038;6.992;2022-07-23T01:51:31;40.90;;;31.88;;
19842;SDS011;10082;51.038;6.992;2022-07-23T01:54:06;45.58;;;34.97;;
19842;SDS011;10082;51.038;6.992;2022-07-23T01:56:35;38.58;;;31.40;;
19842;SDS011;10082;51.038;6.992;2022-07-23T01:59:02;35.72;;;31.23;;
19842;SDS011;10082;51.038;6.992;2022-07-23T02:01:28;38.92;;;31.60;;
19842;SDS011;10082;51.038;6.992;2022-07-23T02:03:56;33.60;;;29.98;;
19842;SDS011;10082;51.038;6.992;2022-07-23T02:06:23;34.70;;;30.33;;
19842;SDS011;10082;51.038;6.992;2022-07-23T02:08:50;34.92;;;30.63;;
19842;SDS011;10082;51.038;6.992;2022-07-23T02:11:16;33.90;;;30.33;;
19842;SDS011;10082;51.038;6.992;2022-07-23T02:13:44;36.65;;;31.33;;
19842;SDS011;10082;51.038;6.992;2022-07-23T02:16:11;33.22;;;29.70;;
19842;SDS011;10082;51.038;6.992;2022-07-23T02:18:37;40.00;;;32.65;;
19842;SDS011;10082;51.038;6.992;2022-07-23T02:21:04;37.42;;;30.52;;
19842;SDS011;10082;51.038;6.992;2022-07-23T02:23:31;39.75;;;33.58;;
19842;SDS011;10082;51.038;6.992;2022-07-23T02:25:58;36.40;;;32.50;;
19842;SDS011;10082;51.038;6.992;2022-07-23T02:28:24;42.10;;;34.78;;
19842;SDS011;10082;51.038;6.992;2022-07-23T02:30:52;41.67;;;34.13;;
19842;SDS011;10082;51.038;6.992;2022-07-23T02:33:19;39.53;;;33.85;;
19842;SDS011;10082;51.038;6.992;2022-07-23T02:35:46;40.22;;;33.72;;
19842;SDS011;10082;51.038;6.992;2022-07-23T02:38:17;41.85;;;35.22;;
19842;SDS011;10082;51.038;6.992;2022-07-23T02:40:44;39.00;;;31.75;;
19842;SDS011;10082;51.038;6.992;2022-07-23T02:43:11;43.03;;;32.67;;
19842;SDS011;10082;51.038;6.992;2022-07-23T02:45:38;39.92;;;33.03;;
19842;SDS011;10082;51.038;6.992;2022-07-23T02:48:06;35.90;;;32.00;;
19842;SDS011;10082;51.038;6.992;2022-07-23T02:50:33;36.40;;;31.33;;
19842;SDS011;10082;51.038;6.992;2022-07-23T02:53:00;38.30;;;32.20;;
19842;SDS011;10082;51.038;6.992;2022-07-23T02:55:26;38.67;;;31.50;;
19842;SDS011;10082;51.038;6.992;2022-07-23T02:57:53;38.85;;;32.10;;
19842;SDS011;10082;51.038;6.992;2022-07-23T03:00:20;43.50;;;34.17;;
19842;SDS011;10082;51.038;6.992;2022-07-23T03:02:47;37.58;;;33.08;;
19842;SDS011;10082;51.038;6.992;2022-07-23T03:05:15;41.70;;;34.10;;
19842;SDS011;10082;51.038;6.992;2022-07-23T03:07:42;44.78;;;35.00;;
19842;SDS011;10082;51.038;6.992;2022-07-23T03:10:09;39.88;;;34.55;;
19842;SDS011;10082;51.038;6.992;2022-07-23T03:12:36;46.30;;;37.97;;
19842;SDS011;10082;51.038;6.992;2022-07-23T03:15:03;44.30;;;37.75;;
19842;SDS011;10082;51.038;6.992;2022-07-23T03:17:31;42.38;;;34.72;;
19842;SDS011;10082;51.038;6.992;2022-07-23T03:19:58;46.60;;;37.65;;
19842;SDS011;10082;51.038;6.992;2022-07-23T03:22:26;46.25;;;38.03;;
19842;SDS011;10082;51.038;6.992;2022-07-23T03:24:52;44.00;;;37.40;;
19842;SDS011;10082;51.038;6.992;2022-07-23T03:27:24;47.72;;;36.58;;
19842;SDS011;10082;51.038;6.992;2022-07-23T03:29:53;46.03;;;37.60;;
19842;SDS011;10082;51.038;6.992;2022-07-23T03:32:22;43.05;;;35.40;;
19842;SDS011;10082;51.038;6.992;2022-07-23T03:34:49;43.85;;;35.38;;
19842;SDS011;10082;51.038;6.992;2022-07-23T03:37:16;45.88;;;36.75;;
19842;SDS011;10082;51.038;6.992;2022-07-23T03:39:46;45.03;;;35.85;;
19842;SDS011;10082;51.038;6.992;2022-07-23T03:42:13;45.38;;;36.47;;
19842;SDS011;10082;51.038;6.992;2022-07-23T03:44:40;51.28;;;36.50;;
19842;SDS011;10082;51.038;6.992;2022-07-23T03:47:07;41.88;;;33.80;;
19842;SDS011;10082;51.038;6.992;2022-07-23T03:49:34;43.05;;;36.05;;
19842;SDS011;10082;51.038;6.992;2022-07-23T03:52:01;41.40;;;33.15;;
19842;SDS011;10082;51.038;6.992;2022-07-23T03:54:27;44.00;;;35.08;;
19842;SDS011;10082;51.038;6.992;2022-07-23T03:56:56;42.55;;;34.75;;
19842;SDS011;10082;51.038;6.992;2022-07-23T03:59:23;40.47;;;34.08;;
19842;SDS011;10082;51.038;6.992;2022-07-23T04:01:50;42.92;;;33.45;;
19842;SDS011;10082;51.038;6.992;2022-07-23T04:04:18;42.30;;;33.78;;
19842;SDS011;10082;51.038;6.992;2022-07-23T04:06:44;39.63;;;32.58;;
19842;SDS011;10082;51.038;6.992;2022-07-23T04:09:11;36.42;;;31.05;;
19842;SDS011;10082;51.038;6.992;2022-07-23T04:11:38;38.42;;;33.25;;
19842;SDS011;10082;51.038;6.992;2022-07-23T04:14:07;37.58;;;31.27;;
19842;SDS011;10082;51.038;6.992;2022-07-23T04:16:34;39.92;;;30.65;;
19842;SDS011;10082;51.038;6.992;2022-07-23T04:19:01;36.53;;;31.95;;
19842;SDS011;10082;51.038;6.992;2022-07-23T04:21:33;36.97;;;30.80;;
19842;SDS011;10082;51.038;6.992;2022-07-23T04:24:00;39.80;;;32.55;;
19842;SDS011;10082;51.038;6.992;2022-07-23T04:26:27;38.42;;;31.58;;
19842;SDS011;10082;51.038;6.992;2022-07-23T04:28:53;35.90;;;31.70;;
19842;SDS011;10082;51.038;6.992;2022-07-23T04:31:22;39.30;;;32.15;;
19842;SDS011;10082;51.038;6.992;2022-07-23T04:33:48;40.50;;;32.67;;
19842;SDS011;10082;51.038;6.992;2022-07-23T04:36:16;36.05;;;31.95;;
19842;SDS011;10082;51.038;6.992;2022-07-23T04:38:43;39.58;;;32.38;;
19842;SDS011;10082;51.038;6.992;2022-07-23T04:41:10;36.88;;;31.40;;
19842;SDS011;10082;51.038;6.992;2022-07-23T04:43:38;35.33;;;30.75;;
19842;SDS011;10082;51.038;6.992;2022-07-23T04:46:04;33.65;;;30.05;;
19842;SDS011;10082;51.038;6.992;2022-07-23T04:48:41;35.28;;;29.70;;
19842;SDS011;10082;51.038;6.992;2022-07-23T04:51:08;33.45;;;28.77;;
19842;SDS011;10082;51.038;6.992;2022-07-23T04:53:36;31.25;;;27.05;;
19842;SDS011;10082;51.038;6.992;2022-07-23T04:56:04;31.13;;;27.73;;
19842;SDS011;10082;51.038;6.992;2022-07-23T04:58:31;30.75;;;27.42;;
19842;SDS011;10082;51.038;6.992;2022-07-23T05:00:58;33.03;;;27.38;;
19842;SDS011;10082;51.038;6.992;2022-07-23T05:03:26;31.73;;;27.88;;
19842;SDS011;10082;51.038;6.992;2022-07-23T05:05:54;31.33;;;27.92;;
19842;SDS011;10082;51.038;6.992;2022-07-23T05:08:21;28.13;;;25.33;;
19842;SDS011;10082;51.038;6.992;2022-07-23T05:10:50;25.08;;;22.58;;
19842;SDS011;10082;51.038;6.992;2022-07-23T05:13:19;23.30;;;20.98;;
19842;SDS011;10082;51.038;6.992;2022-07-23T05:15:45;20.98;;;18.88;;
19842;SDS011;10082;51.038;6.992;2022-07-23T05:18:12;21.48;;;19.33;;
19842;SDS011;10082;51.038;6.992;2022-07-23T05:20:40;20.02;;;18.02;;
19842;SDS011;10082;51.038;6.992;2022-07-23T05:23:08;19.83;;;17.85;;
19842;SDS011;10082;51.038;6.992;2022-07-23T05:25:35;22.02;;;18.80;;
19842;SDS011;10082;51.038;6.992;2022-07-23T05:28:02;21.02;;;18.83;;
19842;SDS011;10082;51.038;6.992;2022-07-23T05:30:29;22.15;;;19.70;;
19842;SDS011;10082;51.038;6.992;2022-07-23T05:32:59;21.20;;;19.05;;
19842;SDS011;10082;51.038;6.992;2022-07-23T05:35:26;19.65;;;17.75;;
19842;SDS011;10082;51.038;6.992;2022-07-23T05:38:21;18.05;;;16.10;;
19842;SDS011;10082;51.038;6.992;2022-07-23T05:40:48;18.80;;;16.85;;
19842;SDS011;10082;51.038;6.992;2022-07-23T05:43:14;17.85;;;16.05;;
19842;SDS011;10082;51.038;6.992;2022-07-23T05:45:42;17.27;;;15.63;;
19842;SDS011;10082;51.038;6.992;2022-07-23T05:48:09;18.95;;;17.05;;
19842;SDS011;10082;51.038;6.992;2022-07-23T05:50:43;17.10;;;15.40;;
19842;SDS011;10082;51.038;6.992;2022-07-23T05:53:21;17.55;;;15.65;;
19842;SDS011;10082;51.038;6.992;2022-07-23T05:56:03;16.70;;;14.88;;
19842;SDS011;10082;51.038;6.992;2022-07-23T05:58:31;17.15;;;15.13;;
19842;SDS011;10082;51.038;6.992;2022-07-23T06:00:58;18.38;;;16.15;;
19842;SDS011;10082;51.038;6.992;2022-07-23T06:03:28;17.65;;;15.75;;
19842;SDS011;10082;51.038;6.992;2022-07-23T06:05:55;21.05;;;17.25;;
19842;SDS011;10082;51.038;6.992;2022-07-23T06:08:23;23.77;;;17.92;;
19842;SDS011;10082;51.038;6.992;2022-07-23T06:10:49;22.63;;;18.80;;
19842;SDS011;10082;51.038;6.992;2022-07-23T06:13:17;23.42;;;21.13;;
19842;SDS011;10082;51.038;6.992;2022-07-23T06:15:43;25.15;;;22.58;;
19842;SDS011;10082;51.038;6.992;2022-07-23T06:18:10;25.65;;;22.92;;
19842;SDS011;10082;51.038;6.992;2022-07-23T06:20:38;25.23;;;22.42;;
19842;SDS011;10082;51.038;6.992;2022-07-23T06:23:05;27.23;;;24.08;;
19842;SDS011;10082;51.038;6.992;2022-07-23T06:25:33;25.35;;;22.33;;
19842;SDS011;10082;51.038;6.992;2022-07-23T06:28:00;27.10;;;24.15;;
19842;SDS011;10082;51.038;6.992;2022-07-23T06:30:26;27.23;;;24.27;;
19842;SDS011;10082;51.038;6.992;2022-07-23T06:32:53;24.60;;;22.10;;
19842;SDS011;10082;51.038;6.992;2022-07-23T06:35:20;22.58;;;20.25;;
19842;SDS011;10082;51.038;6.992;2022-07-23T06:37:46;21.08;;;18.85;;
19842;SDS011;10082;51.038;6.992;2022-07-23T06:40:14;20.80;;;18.58;;
19842;SDS011;10082;51.038;6.992;2022-07-23T06:42:42;20.67;;;18.45;;
19842;SDS011;10082;51.038;6.992;2022-07-23T06:45:15;19.45;;;17.45;;
19842;SDS011;10082;51.038;6.992;2022-07-23T06:47:42;18.63;;;16.83;;
19842;SDS011;10082;51.038;6.992;2022-07-23T06:50:09;21.02;;;18.00;;
19842;SDS011;10082;51.038;6.992;2022-07-23T06:52:35;15.60;;;14.10;;
19842;SDS011;10082;51.038;6.992;2022-07-23T06:55:05;16.67;;;14.98;;
19842;SDS011;10082;51.038;6.992;2022-07-23T06:57:32;15.15;;;13.65;;
19842;SDS011;10082;51.038;6.992;2022-07-23T07:00:00;15.32;;;13.02;;
19842;SDS011;10082;51.038;6.992;2022-07-23T07:02:26;16.27;;;13.57;;
19842;SDS011;10082;51.038;6.992;2022-07-23T07:04:54;14.52;;;13.02;;
19842;SDS011;10082;51.038;6.992;2022-07-23T07:07:21;14.93;;;13.32;;
19842;SDS011;10082;51.038;6.992;2022-07-23T07:09:48;14.88;;;13.27;;
19842;SDS011;10082;51.038;6.992;2022-07-23T07:12:15;13.35;;;11.95;;
19842;SDS011;10082;51.038;6.992;2022-07-23T07:14:42;13.65;;;12.05;;
19842;SDS011;10082;51.038;6.992;2022-07-23T07:17:10;11.10;;;10.00;;
19842;SDS011;10082;51.038;6.992;2022-07-23T07:19:37;12.23;;;10.68;;
19842;SDS011;10082;51.038;6.992;2022-07-23T07:22:04;14.38;;;11.18;;
19842;SDS011;10082;51.038;6.992;2022-07-23T07:24:31;13.65;;;11.10;;
19842;SDS011;10082;51.038;6.992;2022-07-23T07:26:57;12.23;;;10.18;;
19842;SDS011;10082;51.038;6.992;2022-07-23T07:29:24;9.55;;;8.55;;
19842;SDS011;10082;51.038;6.992;2022-07-23T07:31:52;9.82;;;8.90;;
19842;SDS011;10082;51.038;6.992;2022-07-23T07:34:20;10.75;;;9.70;;
19842;SDS011;10082;51.038;6.992;2022-07-23T07:36:46;12.35;;;9.90;;
19842;SDS011;10082;51.038;6.992;2022-07-23T07:39:13;12.38;;;11.23;;
19842;SDS011;10082;51.038;6.992;2022-07-23T07:41:40;12.15;;;11.00;;
19842;SDS011;10082;51.038;6.992;2022-07-23T07:44:07;12.02;;;10.82;;
19842;SDS011;10082;51.038;6.992;2022-07-23T07:46:33;12.75;;;11.10;;
19842;SDS011;10082;51.038;6.992;2022-07-23T07:49:00;12.05;;;10.85;;
19842;SDS011;10082;51.038;6.992;2022-07-23T07:51:28;11.70;;;10.43;;
19842;SDS011;10082;51.038;6.992;2022-07-23T07:53:55;13.18;;;11.77;;
19842;SDS011;10082;51.038;6.992;2022-07-23T07:56:22;12.45;;;11.15;;
19842;SDS011;10082;51.038;6.992;2022-07-23T07:58:48;12.75;;;11.43;;
19842;SDS011;10082;51.038;6.992;2022-07-23T08:01:15;14.32;;;12.85;;
19842;SDS011;10082;51.038;6.992;2022-07-23T08:03:42;14.75;;;13.10;;
19842;SDS011;10082;51.038;6.992;2022-07-23T08:06:08;13.55;;;11.88;;
19842;SDS011;10082;51.038;6.992;2022-07-23T08:08:36;14.10;;;12.68;;
19842;SDS011;10082;51.038;6.992;2022-07-23T08:11:03;13.95;;;12.48;;
19842;SDS011;10082;51.038;6.992;2022-07-23T08:13:30;16.90;;;15.20;;
19842;SDS011;10082;51.038;6.992;2022-07-23T08:15:57;16.65;;;15.05;;
19842;SDS011;10082;51.038;6.992;2022-07-23T08:18:23;15.23;;;13.82;;
19842;SDS011;10082;51.038;6.992;2022-07-23T08:20:50;16.20;;;14.60;;
19842;SDS011;10082;51.038;6.992;2022-07-23T08:23:17;15.88;;;14.25;;
19842;SDS011;10082;51.038;6.992;2022-07-23T08:25:46;16.02;;;14.35;;
19842;SDS011;10082;51.038;6.992;2022-07-23T08:28:13;18.23;;;14.82;;
19842;SDS011;10082;51.038;6.992;2022-07-23T08:30:41;17.52;;;15.90;;
19842;SDS011;10082;51.038;6.992;2022-07-23T08:33:10;17.73;;;15.98;;
19842;SDS011;10082;51.038;6.992;2022-07-23T08:35:39;16.00;;;14.40;;
19842;SDS011;10082;51.038;6.992;2022-07-23T08:38:08;15.95;;;14.38;;
19842;SDS011;10082;51.038;6.992;2022-07-23T08:40:36;13.23;;;11.82;;
19842;SDS011;10082;51.038;6.992;2022-07-23T08:43:06;13.88;;;12.38;;
19842;SDS011;10082;51.038;6.992;2022-07-23T08:45:35;12.20;;;10.95;;
19842;SDS011;10082;51.038;6.992;2022-07-23T08:48:05;10.85;;;9.55;;
19842;SDS011;10082;51.038;6.992;2022-07-23T08:50:34;12.30;;;11.10;;
19842;SDS011;10082;51.038;6.992;2022-07-23T08:53:02;11.88;;;10.65;;
19842;SDS011;10082;51.038;6.992;2022-07-23T08:55:31;12.07;;;10.82;;
19842;SDS011;10082;51.038;6.992;2022-07-23T08:57:58;13.50;;;12.30;;
19842;SDS011;10082;51.038;6.992;2022-07-23T09:00:26;14.52;;;13.20;;
19842;SDS011;10082;51.038;6.992;2022-07-23T09:02:54;14.85;;;13.55;;
19842;SDS011;10082;51.038;6.992;2022-07-23T09:05:20;12.48;;;11.27;;
19842;SDS011;10082;51.038;6.992;2022-07-23T09:08:03;11.55;;;10.45;;
19842;SDS011;10082;51.038;6.992;2022-07-23T09:10:34;13.55;;;12.15;;
19842;SDS011;10082;51.038;6.992;2022-07-23T09:13:14;13.18;;;11.90;;
19842;SDS011;10082;51.038;6.992;2022-07-23T09:15:52;14.13;;;12.65;;
19842;SDS011;10082;51.038;6.992;2022-07-23T09:18:27;16.33;;;14.70;;
19842;SDS011;10082;51.038;6.992;2022-07-23T09:21:04;14.93;;;13.43;;
19842;SDS011;10082;51.038;6.992;2022-07-23T09:23:38;16.67;;;14.98;;
19842;SDS011;10082;51.038;6.992;2022-07-23T09:26:18;17.23;;;15.45;;
19842;SDS011;10082;51.038;6.992;2022-07-23T09:28:50;17.83;;;15.27;;
19842;SDS011;10082;51.038;6.992;2022-07-23T09:31:24;17.15;;;15.15;;
19842;SDS011;10082;51.038;6.992;2022-07-23T09:33:51;15.95;;;14.20;;
19842;SDS011;10082;51.038;6.992;2022-07-23T09:36:32;14.50;;;13.13;;
19842;SDS011;10082;51.038;6.992;2022-07-23T09:38:59;14.55;;;13.07;;
19842;SDS011;10082;51.038;6.992;2022-07-23T09:41:26;12.52;;;11.35;;
19842;SDS011;10082;51.038;6.992;2022-07-23T09:44:05;13.85;;;12.75;;
19842;SDS011;10082;51.038;6.992;2022-07-23T09:46:34;16.10;;;14.70;;
19842;SDS011;10082;51.038;6.992;2022-07-23T09:49:09;16.67;;;15.07;;
19842;SDS011;10082;51.038;6.992;2022-07-23T09:51:43;17.75;;;16.17;;
19842;SDS011;10082;51.038;6.992;2022-07-23T09:54:20;15.07;;;13.75;;
19842;SDS011;10082;51.038;6.992;2022-07-23T09:56:58;15.73;;;14.13;;
19842;SDS011;10082;51.038;6.992;2022-07-23T09:59:27;16.52;;;14.80;;
19842;SDS011;10082;51.038;6.992;2022-07-23T10:01:57;13.68;;;12.40;;
19842;SDS011;10082;51.038;6.992;2022-07-23T10:04:25;13.88;;;12.57;;
19842;SDS011;10082;51.038;6.992;2022-07-23T10:06:54;12.70;;;11.13;;
19842;SDS011;10082;51.038;6.992;2022-07-23T10:09:41;13.55;;;12.20;;
19842;SDS011;10082;51.038;6.992;2022-07-23T10:12:32;12.60;;;11.55;;
19842;SDS011;10082;51.038;6.992;2022-07-23T10:15:11;13.52;;;12.40;;
19842;SDS011;10082;51.038;6.992;2022-07-23T10:17:39;14.60;;;13.15;;
19842;SDS011;10082;51.038;6.992;2022-07-23T10:20:06;14.13;;;12.82;;
19842;SDS011;10082;51.038;6.992;2022-07-23T10:22:34;14.32;;;12.98;;
19842;SDS011;10082;51.038;6.992;2022-07-23T10:25:08;13.80;;;12.50;;
19842;SDS011;10082;51.038;6.992;2022-07-23T10:28:01;14.18;;;12.77;;
19842;SDS011;10082;51.038;6.992;2022-07-23T10:30:41;12.00;;;11.00;;
19842;SDS011;10082;51.038;6.992;2022-07-23T10:33:23;11.07;;;10.18;;
19842;SDS011;10082;51.038;6.992;2022-07-23T10:36:01;12.27;;;11.27;;
19842;SDS011;10082;51.038;6.992;2022-07-23T10:38:34;12.75;;;11.45;;
19842;SDS011;10082;51.038;6.992;2022-07-23T10:41:07;14.50;;;13.15;;
19842;SDS011;10082;51.038;6.992;2022-07-23T10:43:34;13.40;;;12.20;;
19842;SDS011;10082;51.038;6.992;2022-07-23T10:46:21;11.48;;;10.18;;
19842;SDS011;10082;51.038;6.992;2022-07-23T10:54:44;10.32;;;9.32;;
19842;SDS011;10082;51.038;6.992;2022-07-23T10:57:12;10.32;;;9.32;;
19842;SDS011;10082;51.038;6.992;2022-07-23T11:02:47;10.88;;;9.98;;
19842;SDS011;10082;51.038;6.992;2022-07-23T11:05:16;12.48;;;11.50;;
19842;SDS011;10082;51.038;6.992;2022-07-23T11:10:45;11.63;;;10.73;;
19842;SDS011;10082;51.038;6.992;2022-07-23T11:13:30;11.55;;;10.55;;
19842;SDS011;10082;51.038;6.992;2022-07-23T11:16:15;14.00;;;12.82;;
19842;SDS011;10082;51.038;6.992;2022-07-23T11:18:59;12.13;;;11.02;;
19842;SDS011;10082;51.038;6.992;2022-07-23T11:21:42;12.48;;;11.23;;
19842;SDS011;10082;51.038;6.992;2022-07-23T11:24:19;12.55;;;11.45;;
19842;SDS011;10082;51.038;6.992;2022-07-23T11:26:57;11.52;;;10.60;;
19842;SDS011;10082;51.038;6.992;2022-07-23T11:32:32;10.52;;;9.73;;
19842;SDS011;10082;51.038;6.992;2022-07-23T11:35:23;10.13;;;9.32;;
19842;SDS011;10082;51.038;6.992;2022-07-23T11:37:54;9.32;;;8.63;;
19842;SDS011;10082;51.038;6.992;2022-07-23T11:40:28;10.00;;;9.20;;
19842;SDS011;10082;51.038;6.992;2022-07-23T11:42:56;10.35;;;9.45;;
19842;SDS011;10082;51.038;6.992;2022-07-23T11:45:25;8.40;;;7.70;;
19842;SDS011;10082;51.038;6.992;2022-07-23T11:48:00;9.35;;;8.55;;
19842;SDS011;10082;51.038;6.992;2022-07-23T11:50:27;7.90;;;7.30;;
19842;SDS011;10082;51.038;6.992;2022-07-23T11:52:55;10.30;;;9.43;;
19842;SDS011;10082;51.038;6.992;2022-07-23T11:55:22;8.60;;;7.57;;
19842;SDS011;10082;51.038;6.992;2022-07-23T11:57:50;9.15;;;8.35;;
19842;SDS011;10082;51.038;6.992;2022-07-23T12:00:19;8.85;;;7.97;;
19842;SDS011;10082;51.038;6.992;2022-07-23T12:02:48;8.13;;;7.43;;
19842;SDS011;10082;51.038;6.992;2022-07-23T12:05:17;9.50;;;8.73;;
19842;SDS011;10082;51.038;6.992;2022-07-23T12:07:46;10.65;;;9.73;;
19842;SDS011;10082;51.038;6.992;2022-07-23T12:10:18;8.80;;;8.10;;
19842;SDS011;10082;51.038;6.992;2022-07-23T12:12:46;6.93;;;6.32;;
19842;SDS011;10082;51.038;6.992;2022-07-23T12:15:15;6.05;;;5.50;;
19842;SDS011;10082;51.038;6.992;2022-07-23T12:17:44;7.47;;;6.95;;
19842;SDS011;10082;51.038;6.992;2022-07-23T12:20:14;8.75;;;7.70;;
19842;SDS011;10082;51.038;6.992;2022-07-23T12:22:42;6.38;;;5.88;;
19842;SDS011;10082;51.038;6.992;2022-07-23T12:25:11;5.88;;;5.38;;
19842;SDS011;10082;51.038;6.992;2022-07-23T12:27:40;7.72;;;7.05;;
19842;SDS011;10082;51.038;6.992;2022-07-23T12:30:17;7.68;;;7.07;;
19842;SDS011;10082;51.038;6.992;2022-07-23T12:32:46;6.45;;;6.00;;
19842;SDS011;10082;51.038;6.992;2022-07-23T12:35:14;7.15;;;5.55;;
19842;SDS011;10082;51.038;6.992;2022-07-23T12:37:42;5.93;;;5.43;;
19842;SDS011;10082;51.038;6.992;2022-07-23T12:40:20;7.53;;;6.90;;
19842;SDS011;10082;51.038;6.992;2022-07-23T12:42:52;6.65;;;6.13;;
19842;SDS011;10082;51.038;6.992;2022-07-23T12:45:20;6.20;;;5.60;;
19842;SDS011;10082;51.038;6.992;2022-07-23T12:47:50;8.95;;;8.10;;
19842;SDS011;10082;51.038;6.992;2022-07-23T12:50:34;7.18;;;6.68;;
19842;SDS011;10082;51.038;6.992;2022-07-23T12:53:04;6.50;;;5.90;;
19842;SDS011;10082;51.038;6.992;2022-07-23T12:55:33;7.15;;;6.53;;
19842;SDS011;10082;51.038;6.992;2022-07-23T12:58:05;8.32;;;7.60;;
19842;SDS011;10082;51.038;6.992;2022-07-23T13:03:22;7.50;;;6.72;;
19842;SDS011;10082;51.038;6.992;2022-07-23T13:05:51;7.78;;;7.10;;
19842;SDS011;10082;51.038;6.992;2022-07-23T13:08:18;6.95;;;6.35;;
19842;SDS011;10082;51.038;6.992;2022-07-23T13:10:45;6.93;;;6.22;;
19842;SDS011;10082;51.038;6.992;2022-07-23T13:13:15;6.70;;;6.20;;
19842;SDS011;10082;51.038;6.992;2022-07-23T13:15:42;6.90;;;6.30;;
19842;SDS011;10082;51.038;6.992;2022-07-23T13:18:09;6.82;;;6.22;;
19842;SDS011;10082;51.038;6.992;2022-07-23T13:20:35;6.18;;;5.57;;
19842;SDS011;10082;51.038;6.992;2022-07-23T13:23:04;5.75;;;5.30;;
19842;SDS011;10082;51.038;6.992;2022-07-23T13:25:31;5.05;;;4.20;;
19842;SDS011;10082;51.038;6.992;2022-07-23T13:27:57;5.35;;;4.82;;
19842;SDS011;10082;51.038;6.992;2022-07-23T13:30:25;5.30;;;4.80;;
19842;SDS011;10082;51.038;6.992;2022-07-23T13:32:52;5.35;;;4.85;;
19842;SDS011;10082;51.038;6.992;2022-07-23T13:35:19;5.25;;;4.75;;
19842;SDS011;10082;51.038;6.992;2022-07-23T13:37:46;4.63;;;4.22;;
19842;SDS011;10082;51.038;6.992;2022-07-23T13:40:13;4.40;;;4.00;;
19842;SDS011;10082;51.038;6.992;2022-07-23T13:42:39;5.93;;;4.28;;
19842;SDS011;10082;51.038;6.992;2022-07-23T13:45:07;4.28;;;3.80;;
19842;SDS011;10082;51.038;6.992;2022-07-23T13:47:35;4.05;;;3.75;;
19842;SDS011;10082;51.038;6.992;2022-07-23T13:50:02;4.18;;;3.53;;
19842;SDS011;10082;51.038;6.992;2022-07-23T13:52:30;3.80;;;3.53;;
19842;SDS011;10082;51.038;6.992;2022-07-23T13:54:58;4.30;;;3.90;;
19842;SDS011;10082;51.038;6.992;2022-07-23T13:57:24;4.13;;;3.80;;
19842;SDS011;10082;51.038;6.992;2022-07-23T13:59:51;4.05;;;3.75;;
19842;SDS011;10082;51.038;6.992;2022-07-23T14:02:18;4.72;;;4.03;;
19842;SDS011;10082;51.038;6.992;2022-07-23T14:04:46;3.90;;;3.60;;
19842;SDS011;10082;51.038;6.992;2022-07-23T14:07:12;4.10;;;3.80;;
19842;SDS011;10082;51.038;6.992;2022-07-23T14:09:39;4.65;;;3.97;;
19842;SDS011;10082;51.038;6.992;2022-07-23T14:12:06;3.90;;;3.50;;
19842;SDS011;10082;51.038;6.992;2022-07-23T14:14:33;3.75;;;3.45;;
19842;SDS011;10082;51.038;6.992;2022-07-23T14:17:00;4.13;;;3.72;;
19842;SDS011;10082;51.038;6.992;2022-07-23T14:19:27;3.67;;;3.38;;
19842;SDS011;10082;51.038;6.992;2022-07-23T14:21:55;4.32;;;3.95;;
19842;SDS011;10082;51.038;6.992;2022-07-23T14:24:22;4.13;;;3.72;;
19842;SDS011;10082;51.038;6.992;2022-07-23T14:26:49;4.35;;;3.78;;
19842;SDS011;10082;51.038;6.992;2022-07-23T14:29:15;3.42;;;3.13;;
19842;SDS011;10082;51.038;6.992;2022-07-23T14:31:42;3.13;;;2.92;;
19842;SDS011;10082;51.038;6.992;2022-07-23T14:34:09;3.60;;;3.30;;
19842;SDS011;10082;51.038;6.992;2022-07-23T14:36:36;4.07;;;3.10;;
19842;SDS011;10082;51.038;6.992;2022-07-23T14:39:04;5.78;;;3.50;;
19842;SDS011;10082;51.038;6.992;2022-07-23T14:41:33;3.50;;;3.30;;
19842;SDS011;10082;51.038;6.992;2022-07-23T14:44:00;3.95;;;2.97;;
19842;SDS011;10082;51.038;6.992;2022-07-23T14:46:27;3.97;;;3.67;;
19842;SDS011;10082;51.038;6.992;2022-07-23T14:48:54;4.68;;;3.00;;
19842;SDS011;10082;51.038;6.992;2022-07-23T14:51:20;3.92;;;3.30;;
19842;SDS011;10082;51.038;6.992;2022-07-23T14:53:47;3.92;;;3.45;;
19842;SDS011;10082;51.038;6.992;2022-07-23T14:56:15;4.60;;;3.17;;